Time;durP1;ratioP1;P1;durP2;ratioP2;P2;SDS_P1;SDS_P2;PMS_P1;PMS_P2;Temp;Humidity;BMP_temperature;BMP_pressure;BME280_temperature;BME280_humidity;BME280_pressure;Samples;Min_cycle;Max_cycle;Signal;HPM_P1;HPM_P2
2022/01/24 00:02:04;;;;;;;10.35;4.40;;;;;;;7.13;74.93;102457.03;4835032;29;20684;-78
2022/01/24 00:04:31;;;;;;;10.52;3.28;;;;;;;7.13;74.74;102465.28;4849178;29;20050;-78
2022/01/24 00:06:58;;;;;;;12.90;4.00;;;;;;;7.13;74.86;102459.78;4848647;29;20759;-78
2022/01/24 00:09:25;;;;;;;9.90;3.90;;;;;;;7.14;74.63;102455.94;4849001;29;20065;-78
2022/01/24 00:17:08;;;;;;;10.45;3.40;;;;;;;7.11;74.58;102454.56;4841640;29;20050;-78
2022/01/24 00:27:57;;;;;;;16.83;4.10;;;;;;;7.09;74.77;102454.03;4847318;29;20069;-78
2022/01/24 00:30:23;;;;;;;12.57;3.13;;;;;;;7.08;74.85;102457.06;4846107;29;20516;-79
2022/01/24 00:32:50;;;;;;;12.48;3.15;;;;;;;7.08;74.75;102457.88;4847107;29;20068;-78
2022/01/24 00:35:17;;;;;;;8.50;3.28;;;;;;;7.10;74.81;102461.16;4846812;29;20069;-78
2022/01/24 00:37:44;;;;;;;13.27;3.58;;;;;;;7.09;74.98;102458.72;4844881;29;20113;-78
2022/01/24 00:40:11;;;;;;;12.57;3.45;;;;;;;7.09;74.79;102459.53;4846575;29;20098;-78
2022/01/24 00:55:44;;;;;;;8.10;3.30;;;;;;;7.10;74.72;102465.84;4846794;29;20048;-79
2022/01/24 00:58:10;;;;;;;11.80;3.35;;;;;;;7.10;74.67;102460.34;4846627;29;20086;-78
2022/01/24 01:00:37;;;;;;;10.63;3.22;;;;;;;7.11;74.57;102467.50;4846730;29;20049;-78
2022/01/24 01:03:05;;;;;;;11.13;3.22;;;;;;;7.12;74.65;102463.66;4847789;29;20045;-78
2022/01/24 01:18:05;;;;;;;19.05;3.55;;;;;;;7.13;74.65;102451.53;4847734;29;20053;-78
2022/01/24 01:19:05;;;;;;;8.13;2.70;;;;;;;7.11;74.27;102434.47;4846008;29;20045;-79
2022/01/24 01:21:32;;;;;;;12.20;3.22;;;;;;;7.09;74.17;102445.78;4847684;29;20650;-78
2022/01/24 01:24:00;;;;;;;10.40;2.97;;;;;;;7.11;74.25;102445.47;4847985;29;20084;-78
2022/01/24 01:26:50;;;;;;;12.43;3.03;;;;;;;7.12;74.32;102445.19;4848576;29;20124;-78
2022/01/24 01:29:22;;;;;;;7.63;2.58;;;;;;;7.10;74.31;102428.13;4848081;29;20045;-79
2022/01/24 01:39:53;;;;;;;13.90;3.22;;;;;;;7.03;74.70;102426.78;4845422;29;20050;-78
2022/01/24 01:53:54;;;;;;;11.77;4.07;;;;;;;6.94;75.67;102432.03;4863890;29;20054;-78
2022/01/24 01:56:10;;;;;;;14.23;4.07;;;;;;;6.91;75.42;102424.31;4847203;29;20489;-78
2022/01/24 01:58:37;;;;;;;15.07;5.10;;;;;;;6.88;75.79;102418.56;4845947;29;20075;-78
2022/01/24 02:01:05;;;;;;;10.90;4.03;;;;;;;6.87;75.96;102416.91;4847363;29;20050;-78
2022/01/24 02:03:32;;;;;;;9.27;4.80;;;;;;;6.83;76.09;102418.59;4864563;29;20461;-78
2022/01/24 02:06:00;;;;;;;12.27;3.95;;;;;;;6.81;76.31;102420.78;4848083;29;20157;-78
2022/01/24 02:08:29;;;;;;;12.20;3.65;;;;;;;6.78;76.29;102408.41;4849144;29;20104;-78
2022/01/24 02:10:57;;;;;;;8.25;3.85;;;;;;;6.74;76.25;102416.41;4828309;29;20045;-78
2022/01/24 02:13:26;;;;;;;9.20;4.00;;;;;;;6.73;76.01;102417.50;4849336;29;20532;-78
2022/01/24 02:16:10;;;;;;;14.13;3.45;;;;;;;6.73;76.35;102428.50;4834628;29;20056;-78
2022/01/24 02:21:12;;;;;;;7.28;3.70;;;;;;;6.70;76.48;102418.06;4850787;29;20050;-78
2022/01/24 02:23:47;;;;;;;8.38;3.15;;;;;;;6.68;76.35;102420.25;4850395;29;20433;-79
2022/01/24 02:26:19;;;;;;;14.90;4.28;;;;;;;6.66;76.66;102425.22;4867044;29;20073;-78
2022/01/24 02:28:57;;;;;;;5.80;3.33;;;;;;;6.64;76.49;102430.19;4849715;29;20045;-78
2022/01/24 02:34:22;;;;;;;11.85;3.80;;;;;;;6.56;76.88;102438.19;4850708;29;20064;-78
2022/01/24 02:36:49;;;;;;;13.55;3.80;;;;;;;6.54;76.82;102438.44;4847054;29;20424;-78
2022/01/24 02:49:59;;;;;;;8.27;4.72;;;;;;;6.52;78.00;102437.06;4850128;29;20105;-78
2022/01/24 02:52:27;;;;;;;12.98;5.10;;;;;;;6.51;78.20;102439.00;4848716;29;20054;-78
2022/01/24 02:54:54;;;;;;;13.52;4.78;;;;;;;6.47;78.74;102424.16;4849680;29;20140;-78
2022/01/24 02:57:21;;;;;;;6.25;4.13;;;;;;;6.45;78.56;102423.59;4848161;29;20058;-78
2022/01/24 02:59:48;;;;;;;14.43;4.50;;;;;;;6.41;79.08;102419.75;4849764;29;20054;-78
2022/01/24 03:02:15;;;;;;;12.32;4.35;;;;;;;6.41;78.63;102424.41;4847684;29;20140;-78
2022/01/24 03:04:42;;;;;;;11.07;4.03;;;;;;;6.39;78.68;102421.13;4847092;29;20498;-78
2022/01/24 03:07:08;;;;;;;10.93;4.03;;;;;;;6.34;78.54;102404.63;4843047;29;20071;-78
2022/01/24 03:09:36;;;;;;;9.35;4.25;;;;;;;6.31;78.80;102408.75;4850518;29;20041;-78
2022/01/24 03:12:12;;;;;;;8.90;4.55;;;;;;;6.26;79.04;102405.19;4850075;29;20915;-78
2022/01/24 03:14:38;;;;;;;12.05;5.40;;;;;;;6.21;79.07;102392.28;4827018;29;20141;-78
2022/01/24 03:17:07;;;;;;;11.93;5.10;;;;;;;6.16;79.05;102397.78;4848719;29;20071;-78
2022/01/24 03:19:34;;;;;;;8.55;4.35;;;;;;;6.13;79.15;102403.81;4848379;29;20069;-78
2022/01/24 03:22:00;;;;;;;10.93;4.38;;;;;;;6.08;79.46;102401.06;4848153;29;20083;-78
2022/01/24 03:24:27;;;;;;;11.98;4.43;;;;;;;6.06;79.37;102397.78;4850040;29;20110;-77
2022/01/24 03:26:54;;;;;;;12.23;4.85;;;;;;;6.00;79.50;102401.63;4833027;29;20383;-78
2022/01/24 03:29:20;;;;;;;11.25;4.93;;;;;;;5.95;79.84;102402.44;4849182;29;20053;-78
2022/01/24 03:31:47;;;;;;;13.32;4.70;;;;;;;5.90;80.16;102396.94;4847500;29;20144;-78
2022/01/24 03:34:14;;;;;;;8.38;5.05;;;;;;;5.87;80.51;102393.91;4849916;29;22375;-78
2022/01/24 03:36:42;;;;;;;11.40;4.75;;;;;;;5.86;80.06;102384.00;4848419;29;20424;-78
2022/01/24 03:39:10;;;;;;;12.35;4.78;;;;;;;5.84;80.32;102386.19;4849827;29;20057;-77
2022/01/24 03:41:39;;;;;;;11.88;4.70;;;;;;;5.83;80.10;102381.78;4847776;29;20098;-78
2022/01/24 03:44:11;;;;;;;9.13;5.50;;;;;;;5.79;80.22;102384.25;4848867;29;20037;-78
2022/01/24 03:49:48;;;;;;;12.48;4.82;;;;;;;5.72;80.58;102389.19;4865736;29;20057;-78
2022/01/24 03:52:08;;;;;;;10.80;4.90;;;;;;;5.65;80.49;102380.38;4846765;29;20133;-77
2022/01/24 03:54:36;;;;;;;9.40;4.57;;;;;;;5.64;80.55;102375.19;4848192;29;20045;-78
2022/01/24 03:57:03;;;;;;;12.43;4.80;;;;;;;5.60;81.12;102380.38;4847298;29;20061;-78
2022/01/24 03:59:31;;;;;;;9.15;5.10;;;;;;;5.57;81.13;102380.09;4847227;29;20481;-78
2022/01/24 04:02:01;;;;;;;12.48;4.88;;;;;;;5.53;81.66;102372.38;4846843;29;20047;-78
2022/01/24 04:04:29;;;;;;;11.48;5.60;;;;;;;5.52;81.53;102392.72;4827509;29;20053;-78
2022/01/24 04:06:55;;;;;;;14.25;4.38;;;;;;;5.50;81.29;102381.19;4848642;29;20045;-78
2022/01/24 04:09:22;;;;;;;11.32;6.35;;;;;;;5.49;81.62;102374.03;4832944;29;20497;-78
2022/01/24 04:11:53;;;;;;;15.10;5.88;;;;;;;5.48;81.60;102385.31;4849161;29;20061;-78
2022/01/24 04:14:52;;;;;;;12.32;5.22;;;;;;;5.45;81.47;102375.66;4847870;29;20053;-78
2022/01/24 04:17:23;;;;;;;13.02;5.97;;;;;;;5.43;81.91;102374.28;4848000;29;20061;-78
2022/01/24 04:22:38;;;;;;;15.55;6.15;;;;;;;5.38;81.93;102377.84;4848375;29;20132;-78
2022/01/24 04:25:06;;;;;;;18.90;5.53;;;;;;;5.37;82.34;102381.72;4848035;29;20499;-79
2022/01/24 04:27:32;;;;;;;13.55;6.20;;;;;;;5.37;81.98;102384.47;4846660;29;20064;-77
2022/01/24 04:29:59;;;;;;;11.18;4.95;;;;;;;5.37;82.07;102375.38;4846797;29;20042;-78
2022/01/24 04:32:26;;;;;;;13.80;5.80;;;;;;;5.35;82.21;102378.38;4849049;29;20053;-78
2022/01/24 04:34:52;;;;;;;14.52;6.45;;;;;;;5.35;82.44;102388.53;4847165;29;20051;-78
2022/01/24 04:37:19;;;;;;;12.85;6.05;;;;;;;5.33;82.54;102393.50;4846327;29;20059;-78
2022/01/24 04:39:47;;;;;;;15.73;7.05;;;;;;;5.31;83.05;102396.53;4848582;29;20129;-78
2022/01/24 04:42:23;;;;;;;16.77;6.30;;;;;;;5.31;83.13;102399.25;4848933;29;20049;-78
2022/01/24 04:55:15;;;;;;;14.02;7.93;;;;;;;5.26;83.40;102407.50;4847666;29;20060;-78
2022/01/24 04:57:42;;;;;;;16.75;7.10;;;;;;;5.24;83.82;102404.16;4847056;29;20054;-78
2022/01/24 05:00:12;;;;;;;17.25;9.98;;;;;;;5.25;83.64;102408.56;4848381;29;20050;-78
2022/01/24 05:02:38;;;;;;;21.23;8.13;;;;;;;5.24;83.64;102412.41;4844807;29;20479;-78
2022/01/24 05:05:10;;;;;;;16.33;8.95;;;;;;;5.23;84.03;102413.50;4847847;29;20046;-77
2022/01/24 05:07:36;;;;;;;19.98;7.97;;;;;;;5.23;84.34;102412.69;4847468;29;20081;-77
2022/01/24 05:10:14;;;;;;;22.02;8.55;;;;;;;5.23;84.19;102408.03;4846810;29;20055;-78
2022/01/24 05:25:56;;;;;;;22.45;9.88;;;;;;;5.18;84.39;102399.78;4848223;29;20137;-78
2022/01/24 05:28:23;;;;;;;29.00;11.35;;;;;;;5.16;84.69;102395.66;4845942;29;20041;-77
2022/01/24 05:30:50;;;;;;;25.02;11.05;;;;;;;5.15;84.71;102400.31;4845871;29;20050;-78
2022/01/24 05:33:17;;;;;;;23.40;11.23;;;;;;;5.14;84.99;102397.81;4847157;29;20045;-78
2022/01/24 05:35:48;;;;;;;28.55;12.20;;;;;;;5.11;84.60;102399.16;4845543;29;20049;-78
2022/01/24 05:38:14;;;;;;;24.60;11.60;;;;;;;5.12;84.92;102394.50;4847439;29;20051;-78
2022/01/24 05:40:41;;;;;;;32.67;11.60;;;;;;;5.11;84.93;102399.16;4849352;29;20051;-77
2022/01/24 05:43:08;;;;;;;25.35;12.00;;;;;;;5.11;84.70;102404.66;4844147;29;21443;-77
2022/01/24 05:45:35;;;;;;;30.80;12.32;;;;;;;5.11;84.78;102398.38;4829986;29;20094;-78
2022/01/24 05:48:03;;;;;;;30.20;13.02;;;;;;;5.09;84.98;102395.88;4849950;29;20049;-78
2022/01/24 05:50:30;;;;;;;31.77;13.85;;;;;;;5.06;84.76;102395.56;4848882;29;20513;-78
2022/01/24 05:52:57;;;;;;;29.48;12.73;;;;;;;5.04;85.03;102398.59;4853557;29;20049;-78
2022/01/24 05:55:23;;;;;;;26.63;11.95;;;;;;;5.01;85.23;102412.03;4849808;29;20402;-78
2022/01/24 05:57:53;;;;;;;26.75;12.70;;;;;;;4.98;85.74;102412.59;4849712;29;20053;-78
2022/01/24 06:00:22;;;;;;;28.27;12.27;;;;;;;4.98;85.84;102410.66;4850241;29;20058;-78
2022/01/24 06:02:49;;;;;;;35.13;12.70;;;;;;;4.97;85.92;102399.94;4850830;29;20052;-78
2022/01/24 06:05:16;;;;;;;23.80;11.20;;;;;;;4.98;85.96;102409.84;4850886;29;20053;-78
2022/01/24 06:07:43;;;;;;;26.60;13.05;;;;;;;4.96;85.77;102407.34;4848818;29;20124;-77
2022/01/24 06:10:10;;;;;;;25.23;11.68;;;;;;;4.95;85.92;102411.19;4850005;29;20053;-78
2022/01/24 06:12:37;;;;;;;29.17;12.27;;;;;;;4.93;85.81;102400.47;4849140;29;20041;-78
2022/01/24 06:15:04;;;;;;;23.45;11.45;;;;;;;4.94;85.91;102409.53;4850077;29;20060;-78
2022/01/24 06:17:30;;;;;;;26.48;11.73;;;;;;;4.93;85.89;102408.72;4849643;29;20053;-78
2022/01/24 06:19:57;;;;;;;29.45;12.10;;;;;;;4.92;85.79;102422.72;4848101;29;20488;-78
2022/01/24 06:22:24;;;;;;;28.60;12.65;;;;;;;4.91;85.79;102410.06;4848992;29;20045;-78
2022/01/24 06:24:51;;;;;;;22.27;11.23;;;;;;;4.89;85.89;102415.00;4850310;29;20045;-78
2022/01/24 06:27:37;;;;;;;26.75;11.63;;;;;;;4.88;85.90;102416.09;4848586;29;20053;-78
2022/01/24 06:30:05;;;;;;;26.23;11.13;;;;;;;4.86;85.84;102419.13;4851022;29;20047;-78
2022/01/24 06:32:31;;;;;;;24.55;12.18;;;;;;;4.83;85.50;102422.38;4849611;29;20046;-77
2022/01/24 06:34:58;;;;;;;20.95;11.43;;;;;;;4.83;85.59;102424.28;4850014;29;20049;-78
2022/01/24 06:37:25;;;;;;;25.63;10.75;;;;;;;4.80;85.87;102424.81;4850206;29;20049;-78
2022/01/24 06:39:52;;;;;;;24.55;11.05;;;;;;;4.79;85.73;102421.25;4849613;29;20056;-78
2022/01/24 06:42:23;;;;;;;26.00;11.82;;;;;;;4.79;85.84;102426.75;4848501;29;20132;-78
2022/01/24 06:44:54;;;;;;;28.70;11.70;;;;;;;4.77;86.01;102425.34;4848683;29;20049;-77
2022/01/24 06:47:22;;;;;;;23.75;11.60;;;;;;;4.75;85.87;102428.38;4848592;29;20046;-78
2022/01/24 06:49:50;;;;;;;27.55;12.00;;;;;;;4.72;85.57;102431.66;4843111;29;20055;-78
2022/01/24 06:52:17;;;;;;;30.67;13.57;;;;;;;4.70;86.10;102435.75;4848413;29;20046;-77
2022/01/24 06:54:44;;;;;;;20.27;10.73;;;;;;;4.70;85.99;102441.22;4848976;29;20060;-78
2022/01/24 06:57:14;;;;;;;28.17;13.57;;;;;;;4.68;85.65;102436.03;4848314;29;20070;-78
2022/01/24 06:59:43;;;;;;;32.45;14.57;;;;;;;4.69;85.93;102440.41;4847956;29;20081;-78
2022/01/24 07:02:11;;;;;;;36.95;16.20;;;;;;;4.66;85.88;102442.88;4849642;29;20404;-78
2022/01/24 07:04:42;;;;;;;40.45;15.90;;;;;;;4.66;85.85;102442.88;4849746;29;20162;-78
2022/01/24 07:07:12;;;;;;;38.25;15.70;;;;;;;4.61;85.89;102451.03;4826639;29;20053;-78
2022/01/24 07:09:40;;;;;;;36.83;16.50;;;;;;;4.60;85.82;102446.66;4850390;29;20450;-78
2022/01/24 07:12:08;;;;;;;33.38;14.35;;;;;;;4.61;86.11;102445.53;4848752;29;20121;-78
2022/01/24 07:14:35;;;;;;;33.90;14.15;;;;;;;4.62;85.91;102441.72;4846703;29;20052;-78
2022/01/24 07:17:27;;;;;;;25.38;13.05;;;;;;;4.59;85.69;102445.00;4849010;29;20050;-78
2022/01/24 07:19:54;;;;;;;32.35;14.88;;;;;;;4.54;85.75;102442.22;4850330;29;20128;-78
2022/01/24 07:22:21;;;;;;;27.17;13.45;;;;;;;4.53;85.87;102441.38;4847560;29;20079;-78
2022/01/24 07:24:47;;;;;;;25.48;12.55;;;;;;;4.53;85.70;102452.34;4848812;29;20062;-78
2022/01/24 07:27:14;;;;;;;27.50;14.95;;;;;;;4.51;85.92;102449.06;4849760;29;20055;-78
2022/01/24 07:29:41;;;;;;;24.73;11.80;;;;;;;4.49;85.72;102458.63;4848382;29;20141;-78
2022/01/24 07:32:07;;;;;;;26.85;12.68;;;;;;;4.46;85.58;102467.38;4850314;29;20049;-78
2022/01/24 07:34:34;;;;;;;29.13;13.02;;;;;;;4.37;85.71;102468.97;4848562;29;20144;-78
2022/01/24 07:37:01;;;;;;;28.77;13.88;;;;;;;4.32;85.61;102467.81;4847424;29;20154;-78
2022/01/24 07:39:29;;;;;;;28.20;13.65;;;;;;;4.25;85.81;102469.97;4847761;29;20565;-78
2022/01/24 07:42:02;;;;;;;25.98;12.80;;;;;;;4.22;85.54;102466.91;4863071;29;20069;-78
2022/01/24 07:44:29;;;;;;;26.42;11.60;;;;;;;4.18;85.51;102472.09;4849439;29;20076;-77
2022/01/24 07:46:56;;;;;;;34.78;13.98;;;;;;;4.19;85.64;102473.75;4847673;29;20057;-77
2022/01/24 07:49:23;;;;;;;33.63;13.55;;;;;;;4.20;85.50;102469.09;4847476;29;20072;-78
2022/01/24 07:51:49;;;;;;;31.83;13.32;;;;;;;4.19;85.64;102473.75;4833768;29;20801;-78
2022/01/24 07:54:16;;;;;;;27.52;12.45;;;;;;;4.19;85.56;102486.63;4846665;29;20049;-77
2022/01/24 07:56:43;;;;;;;33.80;14.32;;;;;;;4.18;85.53;102490.47;4848973;29;20082;-78
2022/01/24 07:59:09;;;;;;;30.52;15.60;;;;;;;4.17;86.09;102492.38;4844896;29;20416;-78
2022/01/24 08:01:36;;;;;;;42.28;15.65;;;;;;;4.16;85.92;102496.19;4845550;29;20062;-78
2022/01/24 08:04:03;;;;;;;33.85;14.30;;;;;;;4.18;86.50;102480.31;4845627;29;20037;-78
2022/01/24 08:06:31;;;;;;;33.40;14.25;;;;;;;4.20;86.35;102488.28;4864000;29;20504;-77
2022/01/24 08:08:58;;;;;;;32.67;13.40;;;;;;;4.20;86.06;102483.63;4865139;29;20046;-78
2022/01/24 08:11:26;;;;;;;35.17;14.88;;;;;;;4.19;86.21;102478.41;4847467;29;20049;-78
2022/01/24 08:13:54;;;;;;;32.05;14.90;;;;;;;4.19;86.42;102490.19;4831109;29;20052;-78
2022/01/24 08:16:23;;;;;;;30.35;14.27;;;;;;;4.18;86.41;102491.28;4847291;29;20049;-78
2022/01/24 08:18:52;;;;;;;26.52;12.73;;;;;;;4.19;86.69;102495.69;4845856;29;20053;-78
2022/01/24 08:21:19;;;;;;;33.85;15.13;;;;;;;4.19;86.43;102501.16;4849192;29;20056;-78
2022/01/24 08:23:46;;;;;;;36.20;14.43;;;;;;;4.20;86.52;102502.81;4850098;29;20531;-78
2022/01/24 08:26:14;;;;;;;38.40;16.92;;;;;;;4.21;86.68;102501.72;4845901;29;20053;-78
2022/01/24 08:28:41;;;;;;;49.40;15.48;;;;;;;4.20;86.42;102511.06;4849918;29;20062;-78
2022/01/24 08:31:08;;;;;;;37.00;16.48;;;;;;;4.19;86.69;102508.56;4847762;29;20128;-77
2022/01/24 08:33:35;;;;;;;40.90;15.40;;;;;;;4.20;86.62;102513.78;4847875;29;20045;-78
2022/01/24 08:36:03;;;;;;;44.72;18.35;;;;;;;4.17;86.75;102519.78;4841382;29;20140;-78
2022/01/24 08:38:33;;;;;;;43.03;17.20;;;;;;;4.18;87.10;102524.16;4847941;29;20415;-78
2022/01/24 08:41:07;;;;;;;32.97;16.02;;;;;;;4.16;86.94;102534.56;4848615;29;20042;-78
2022/01/24 08:43:59;;;;;;;39.35;17.33;;;;;;;4.19;86.94;102536.78;4846728;29;20476;-78
2022/01/24 08:46:24;;;;;;;37.63;16.13;;;;;;;4.22;86.96;102533.53;4848451;29;20144;-78
2022/01/24 08:48:51;;;;;;;38.03;16.98;;;;;;;4.23;87.10;102545.34;4833948;29;20058;-78
2022/01/24 08:51:19;;;;;;;38.58;16.67;;;;;;;4.24;86.98;102547.81;4848124;29;20053;-78
2022/01/24 08:54:02;;;;;;;38.75;16.48;;;;;;;4.25;86.98;102554.97;4848049;29;20050;-77
2022/01/24 08:56:29;;;;;;;38.33;16.10;;;;;;;4.25;87.08;102552.22;4846769;29;20133;-78
2022/01/24 08:58:56;;;;;;;32.25;14.85;;;;;;;4.28;86.95;102548.13;4839868;29;20056;-78
2022/01/24 09:01:23;;;;;;;41.50;17.92;;;;;;;4.32;87.20;102550.09;4843689;29;20109;-79
2022/01/24 09:03:49;;;;;;;34.15;16.33;;;;;;;4.36;87.32;102544.09;4846766;29;20490;-78
2022/01/24 09:06:18;;;;;;;34.25;15.93;;;;;;;4.40;87.51;102556.16;4847872;29;20045;-78
2022/01/24 09:08:45;;;;;;;35.78;16.40;;;;;;;4.44;87.18;102555.41;4847398;29;20058;-77
2022/01/24 09:11:12;;;;;;;38.58;16.63;;;;;;;4.46;87.51;102555.97;4846462;29;20103;-80
2022/01/24 09:13:39;;;;;;;38.70;15.23;;;;;;;4.51;87.63;102557.94;4849036;29;20041;-79
2022/01/24 09:16:06;;;;;;;37.60;14.50;;;;;;;4.52;87.64;102560.44;4847289;29;20902;-78
2022/01/24 09:18:32;;;;;;;39.42;15.90;;;;;;;4.55;87.80;102559.91;4848063;29;20054;-79
2022/01/24 09:20:59;;;;;;;41.65;15.30;;;;;;;4.57;88.00;102568.69;4851356;29;20053;-79
2022/01/24 09:23:26;;;;;;;34.63;16.10;;;;;;;4.59;88.16;102552.78;4850009;29;20085;-78
2022/01/24 09:25:53;;;;;;;38.05;14.15;;;;;;;4.64;87.79;102552.00;4850629;29;20076;-79
2022/01/24 09:28:20;;;;;;;38.47;14.50;;;;;;;4.68;87.93;102561.38;4850518;29;20054;-79
2022/01/24 09:30:48;;;;;;;35.80;14.82;;;;;;;4.70;87.94;102560.03;4851669;29;20053;-79
2022/01/24 09:33:15;;;;;;;36.53;15.35;;;;;;;4.72;87.75;102555.09;4850942;29;20061;-79
2022/01/24 09:35:43;;;;;;;39.20;15.15;;;;;;;4.75;88.05;102546.34;4850664;29;20146;-78
2022/01/24 09:38:11;;;;;;;39.25;16.23;;;;;;;4.79;87.96;102544.72;4829799;29;20128;-79
2022/01/24 09:40:38;;;;;;;39.55;15.25;;;;;;;4.82;87.88;102554.34;4829648;29;20057;-79
2022/01/24 09:43:05;;;;;;;35.92;14.10;;;;;;;4.85;88.25;102562.88;4851837;29;20584;-79
2022/01/24 09:45:32;;;;;;;35.67;15.50;;;;;;;4.88;88.15;102559.63;4852702;29;20049;-78
2022/01/24 09:48:00;;;;;;;32.05;14.20;;;;;;;4.92;87.93;102570.91;4851005;29;20094;-78
2022/01/24 09:50:27;;;;;;;37.33;15.00;;;;;;;4.93;87.79;102573.38;4833514;29;20451;-78
2022/01/24 09:52:54;;;;;;;30.98;14.85;;;;;;;4.96;87.96;102571.19;4851063;29;20057;-79
2022/01/24 09:55:23;;;;;;;33.78;14.55;;;;;;;4.99;88.08;102579.72;4848899;29;20054;-78
2022/01/24 09:57:50;;;;;;;34.13;14.18;;;;;;;5.01;88.10;102583.03;4842396;29;20053;-78
2022/01/24 10:00:21;;;;;;;27.27;13.15;;;;;;;5.06;88.18;102587.72;4850383;29;20052;-78
2022/01/24 10:02:49;;;;;;;30.77;14.18;;;;;;;5.11;88.00;102585.06;4849812;29;20052;-79
2022/01/24 10:05:18;;;;;;;34.47;13.93;;;;;;;5.12;88.22;102582.03;4848908;29;20505;-78
2022/01/24 10:08:06;;;;;;;37.97;14.35;;;;;;;5.16;88.06;102588.66;4850404;29;20050;-78
2022/01/24 10:10:48;;;;;;;38.00;13.45;;;;;;;5.19;88.08;102579.06;4851101;29;20046;-79
2022/01/24 10:16:29;;;;;;;30.45;14.20;;;;;;;5.27;88.03;102592.31;4851136;29;20614;-79
2022/01/24 10:19:15;;;;;;;38.78;13.10;;;;;;;5.31;88.08;102586.00;4850028;29;20053;-78
2022/01/24 10:22:00;;;;;;;29.38;13.93;;;;;;;5.34;88.19;102590.97;4849620;29;20060;-78
2022/01/24 10:24:35;;;;;;;34.25;12.98;;;;;;;5.36;88.23;102577.78;4851442;29;20053;-78
2022/01/24 10:27:04;;;;;;;32.22;13.35;;;;;;;5.39;88.24;102588.25;4848787;29;20045;-79
2022/01/24 10:29:31;;;;;;;31.80;13.18;;;;;;;5.42;88.24;102592.38;4848622;29;20045;-78
2022/01/24 10:31:58;;;;;;;36.78;12.70;;;;;;;5.44;87.86;102580.03;4851053;29;20052;-78
2022/01/24 10:34:35;;;;;;;25.70;12.90;;;;;;;5.47;87.91;102590.50;4833720;29;20114;-78
2022/01/24 10:37:02;;;;;;;27.08;14.77;;;;;;;5.49;88.12;102582.81;4851401;29;20085;-77
2022/01/24 10:39:42;;;;;;;26.45;11.80;;;;;;;5.52;88.05;102587.78;4847755;29;20050;-78
2022/01/24 10:45:18;;;;;;;23.02;11.07;;;;;;;5.60;87.93;102591.94;4849395;29;20049;-78
2022/01/24 10:47:49;;;;;;;27.27;10.48;;;;;;;5.61;87.73;102588.09;4849739;29;20667;-79
2022/01/24 10:50:28;;;;;;;28.60;10.97;;;;;;;5.65;87.59;102591.13;4850549;29;20042;-78
2022/01/24 10:52:58;;;;;;;29.60;11.35;;;;;;;5.69;87.73;102597.75;4846743;29;20049;-80
2022/01/24 10:55:28;;;;;;;27.88;11.82;;;;;;;5.70;87.71;102591.13;4847955;29;20053;-80
2022/01/24 10:58:06;;;;;;;29.98;12.90;;;;;;;5.74;87.61;102595.03;4847211;29;20061;-79
2022/01/24 11:00:40;;;;;;;29.08;10.25;;;;;;;5.78;87.36;102596.13;4848766;29;20045;-80
2022/01/24 11:03:24;;;;;;;32.25;12.00;;;;;;;5.81;87.36;102599.19;4837409;29;20117;-80
2022/01/24 11:05:53;;;;;;;31.95;11.80;;;;;;;5.84;87.38;102589.56;4848848;29;20506;-80
2022/01/24 11:08:21;;;;;;;33.22;14.20;;;;;;;5.88;87.26;102597.03;4833579;29;20045;-79
2022/01/24 11:10:51;;;;;;;31.90;12.32;;;;;;;5.90;87.42;102583.03;4842782;29;20064;-80
2022/01/24 11:13:30;;;;;;;29.92;11.82;;;;;;;5.95;87.11;102585.81;4827870;29;20064;-80
2022/01/24 11:15:58;;;;;;;28.60;12.25;;;;;;;5.97;87.07;102595.44;4846981;29;20049;-81
2022/01/24 11:18:31;;;;;;;27.10;11.82;;;;;;;6.00;87.09;102586.66;4847516;29;20045;-80
2022/01/24 11:21:06;;;;;;;27.88;10.88;;;;;;;6.04;87.02;102584.16;4845976;29;20045;-80
2022/01/24 11:23:39;;;;;;;27.00;11.40;;;;;;;6.09;86.91;102575.94;4846313;29;20125;-80
2022/01/24 11:26:07;;;;;;;33.05;12.10;;;;;;;6.13;87.02;102569.63;4845344;29;20136;-80
2022/01/24 11:28:34;;;;;;;27.27;12.82;;;;;;;6.15;86.80;102569.34;4849257;29;20165;-79
2022/01/24 11:31:17;;;;;;;28.80;10.60;;;;;;;6.18;86.63;102574.31;4850844;29;20491;-80
2022/01/24 11:33:47;;;;;;;;;;;;;;;6.22;86.73;102575.44;4849593;29;20046;-83
2022/01/24 11:36:15;;;;;;;32.03;11.98;;;;;;;6.26;86.70;102565.53;4865166;29;19990;-80
2022/01/24 11:38:44;;;;;;;23.95;11.73;;;;;;;6.30;86.58;102574.06;4846913;29;20057;-80
2022/01/24 11:41:21;;;;;;;34.80;11.68;;;;;;;6.32;86.50;102569.97;4847237;29;20054;-79
2022/01/24 11:43:53;;;;;;;29.58;10.50;;;;;;;6.35;86.48;102574.91;4848401;29;20050;-80
2022/01/24 11:46:48;;;;;;;35.72;13.60;;;;;;;6.38;86.49;102571.59;4850233;29;20106;-80
2022/01/24 11:49:19;;;;;;;28.45;11.05;;;;;;;6.42;86.37;102575.47;4849815;29;20055;-80
2022/01/24 11:52:00;;;;;;;29.98;12.15;;;;;;;6.44;86.07;102564.19;4826700;29;20044;-80
2022/01/24 11:54:47;;;;;;;26.25;12.68;;;;;;;6.46;86.38;102565.56;4850321;29;20050;-80
2022/01/24 11:57:15;;;;;;;21.45;10.90;;;;;;;6.48;85.45;102566.13;4845473;29;20152;-80
2022/01/24 11:59:43;;;;;;;29.05;12.38;;;;;;;6.51;85.53;102570.25;4848896;29;20170;-80
2022/01/24 12:02:12;;;;;;;31.02;11.75;;;;;;;6.51;85.63;102562.81;4847108;29;20042;-79
2022/01/24 12:04:53;;;;;;;29.42;12.10;;;;;;;6.56;85.68;102565.59;4834680;29;20395;-79
2022/01/24 12:07:31;;;;;;;29.10;12.93;;;;;;;6.59;85.50;102558.72;4846516;29;20098;-80
2022/01/24 12:10:23;;;;;;;35.17;14.57;;;;;;;6.61;85.37;102568.34;4846189;29;20041;-80
2022/01/24 12:13:00;;;;;;;40.53;13.80;;;;;;;6.65;85.56;102563.94;4848930;29;20037;-81
2022/01/24 12:15:39;;;;;;;31.08;14.10;;;;;;;6.69;85.54;102562.28;4846967;29;20137;-79
2022/01/24 12:18:18;;;;;;;30.25;15.38;;;;;;;6.72;85.38;102558.16;4847405;29;20088;-79
2022/01/24 12:20:46;;;;;;;31.17;14.52;;;;;;;6.75;85.58;102552.13;4848718;29;20998;-79
2022/01/24 12:23:24;;;;;;;39.78;19.20;;;;;;;6.78;85.28;102556.22;4848478;29;20081;-79
2022/01/24 12:26:31;;;;;;;35.53;13.70;;;;;;;6.80;85.06;102556.78;4833954;29;20490;-80
2022/01/24 12:29:09;;;;;;;36.78;14.35;;;;;;;6.82;84.99;102551.81;4846198;29;20053;-79
2022/01/24 12:31:46;;;;;;;28.58;15.32;;;;;;;6.83;84.92;102547.97;4848531;29;20045;-80
2022/01/24 12:34:17;;;;;;;38.47;16.30;;;;;;;6.84;84.71;102555.94;4847744;29;20064;-79
2022/01/24 12:36:50;;;;;;;28.65;14.68;;;;;;;6.86;84.99;102547.44;4847011;29;20153;-79
2022/01/24 12:39:19;;;;;;;39.80;15.88;;;;;;;6.89;84.67;102542.16;4847699;29;20045;-80
2022/01/24 12:41:53;;;;;;;33.17;15.57;;;;;;;6.90;84.45;102546.59;4844883;29;20130;-79
2022/01/24 12:47:09;;;;;;;31.88;15.15;;;;;;;6.95;84.25;102549.34;4846984;29;20098;-79
2022/01/24 12:49:37;;;;;;;34.28;16.27;;;;;;;6.98;84.42;102539.69;4846863;29;20104;-82
2022/01/24 12:52:10;;;;;;;36.75;17.10;;;;;;;7.02;84.41;102541.59;4848041;29;20042;-78
2022/01/24 12:54:39;;;;;;;38.75;17.33;;;;;;;7.06;84.39;102545.47;4846457;29;20054;-82
2022/01/24 12:57:09;;;;;;;35.40;15.35;;;;;;;7.09;84.18;102541.34;4848789;29;20045;-78
2022/01/24 12:59:39;;;;;;;36.80;18.60;;;;;;;7.12;84.55;102540.78;4847980;29;20093;-79
2022/01/24 13:02:08;;;;;;;39.33;16.52;;;;;;;7.14;84.32;102533.06;4848340;29;20041;-78
2022/01/24 13:04:38;;;;;;;41.28;16.73;;;;;;;7.16;84.21;102531.66;4848143;29;20133;-79
2022/01/24 13:07:09;;;;;;;39.80;17.08;;;;;;;7.16;83.93;102542.69;4859944;29;20053;-79
2022/01/24 13:09:36;;;;;;;28.70;16.98;;;;;;;7.18;83.91;102542.41;4849267;29;20400;-79
2022/01/24 13:12:07;;;;;;;33.88;15.35;;;;;;;7.21;83.64;102547.34;4846747;29;20133;-79
2022/01/24 13:14:44;;;;;;;38.53;17.73;;;;;;;7.24;83.91;102541.28;4831499;29;20049;-79
2022/01/24 13:23:03;;;;;;;38.13;19.08;;;;;;;7.34;83.70;102538.50;4846419;29;20124;-79
2022/01/24 13:25:30;;;;;;;33.72;14.95;;;;;;;7.34;83.80;102533.00;4847866;29;20041;-79
2022/01/24 13:28:00;;;;;;;38.88;18.58;;;;;;;7.38;83.65;102533.28;4846630;29;20561;-78
2022/01/24 13:30:41;;;;;;;33.38;17.30;;;;;;;7.41;83.42;102539.06;4841219;29;20058;-79
2022/01/24 13:33:11;;;;;;;32.63;16.17;;;;;;;7.44;83.28;102537.66;4848011;29;20057;-79